createdAt,value
2023-03-17T00:00:05.478Z,8.57
2023-03-17T00:03:01.291Z,7.95
2023-03-17T00:05:49.448Z,10.05
2023-03-17T00:08:38.306Z,8.75
2023-03-17T00:11:28.261Z,10.50
2023-03-17T00:14:17.027Z,11.27
2023-03-17T00:17:06.057Z,12.25
2023-03-17T00:19:53.880Z,8.75
2023-03-17T00:22:41.345Z,10.07
2023-03-17T00:25:31.445Z,10.65
2023-03-17T00:28:21.366Z,9.90
2023-03-17T00:31:15.778Z,9.30
2023-03-17T00:34:04.974Z,10.48
2023-03-17T00:36:54.810Z,8.00
2023-03-17T00:39:43.933Z,13.70
2023-03-17T00:42:31.855Z,9.85
2023-03-17T00:45:21.675Z,9.63
2023-03-17T00:48:16.542Z,9.90
2023-03-17T00:51:06.350Z,10.93
2023-03-17T00:53:54.059Z,9.70
2023-03-17T00:56:44.240Z,11.30
2023-03-17T00:59:39.538Z,9.20
2023-03-17T01:02:31.582Z,10.50
2023-03-17T01:05:22.698Z,10.27
2023-03-17T01:08:12.614Z,10.93
2023-03-17T01:11:02.599Z,10.00
2023-03-17T01:13:50.096Z,10.52
2023-03-17T01:16:38.995Z,10.20
2023-03-17T01:19:27.450Z,8.98
2023-03-17T01:22:15.346Z,10.38
2023-03-17T01:25:05.258Z,8.90
2023-03-17T01:27:53.686Z,10.57
2023-03-17T01:30:42.759Z,10.95
2023-03-17T01:33:30.671Z,9.30
2023-03-17T01:36:18.338Z,10.57
2023-03-17T01:39:07.786Z,9.70
2023-03-17T01:42:01.589Z,8.98
2023-03-17T01:45:07.423Z,10.45
2023-03-17T01:47:54.902Z,10.45
2023-03-17T01:50:43.891Z,9.40
2023-03-17T01:53:32.527Z,14.25
2023-03-17T01:56:21.946Z,12.98
2023-03-17T01:59:16.152Z,11.00
2023-03-17T02:02:09.494Z,9.38
2023-03-17T02:07:45.211Z,11.65
2023-03-17T02:10:33.898Z,10.45
2023-03-17T02:13:22.271Z,9.95
2023-03-17T02:16:19.541Z,8.75
2023-03-17T02:19:08.820Z,9.27
2023-03-17T02:21:59.709Z,10.43
2023-03-17T02:24:50.685Z,9.38
2023-03-17T02:27:41.742Z,10.13
2023-03-17T02:30:30.432Z,13.30
2023-03-17T02:33:17.970Z,9.68
2023-03-17T02:36:06.505Z,11.15
2023-03-17T02:38:56.056Z,9.98
2023-03-17T02:41:43.854Z,8.32
2023-03-17T02:44:33.537Z,12.07
2023-03-17T02:47:22.470Z,15.60
2023-03-17T02:50:19.534Z,9.48
2023-03-17T02:53:08.420Z,10.73
2023-03-17T02:55:58.208Z,11.77
2023-03-17T02:58:46.732Z,10.10
2023-03-17T03:01:35.924Z,10.40
2023-03-17T03:04:26.771Z,10.95
2023-03-17T03:07:14.680Z,9.98
2023-03-17T03:10:02.575Z,11.88
2023-03-17T03:12:52.520Z,14.23
2023-03-17T03:15:44.157Z,9.55
2023-03-17T03:18:31.434Z,11.38
2023-03-17T03:21:20.171Z,9.32
2023-03-17T03:24:08.893Z,10.23
2023-03-17T03:26:56.706Z,11.90
2023-03-17T03:29:46.618Z,15.40
2023-03-17T03:32:34.348Z,9.07
2023-03-17T03:35:22.490Z,9.02
2023-03-17T03:38:10.751Z,8.68
2023-03-17T03:40:58.290Z,10.80
2023-03-17T03:43:46.516Z,8.07
2023-03-17T03:46:36.192Z,9.60
2023-03-17T03:49:24.592Z,10.23
2023-03-17T03:52:12.620Z,10.30
2023-03-17T03:55:00.336Z,10.88
2023-03-17T03:57:48.045Z,11.90
2023-03-17T04:00:35.949Z,8.50
2023-03-17T04:03:25.149Z,8.77
2023-03-17T04:06:12.968Z,10.80
2023-03-17T04:09:00.601Z,9.23
2023-03-17T04:11:48.641Z,10.05
2023-03-17T04:14:37.013Z,10.23
2023-03-17T04:17:24.917Z,11.00
2023-03-17T04:20:16.368Z,11.35
2023-03-17T04:23:04.370Z,13.82
2023-03-17T04:25:53.776Z,15.18
2023-03-17T04:28:41.437Z,11.98
2023-03-17T04:31:29.451Z,11.52
2023-03-17T04:34:20.006Z,13.45
2023-03-17T04:37:09.481Z,12.73
2023-03-17T04:39:56.990Z,10.32
2023-03-17T04:42:45.004Z,13.23
2023-03-17T04:45:32.865Z,9.35
2023-03-17T04:48:21.567Z,9.73
2023-03-17T04:51:11.684Z,14.02
2023-03-17T04:54:01.952Z,12.70
2023-03-17T04:56:49.992Z,9.63
2023-03-17T04:59:37.788Z,11.02
2023-03-17T05:02:26.512Z,10.13
2023-03-17T05:05:14.412Z,8.82
2023-03-17T05:08:01.824Z,9.93
2023-03-17T05:10:51.384Z,9.73
2023-03-17T05:13:41.220Z,9.30
2023-03-17T05:16:28.694Z,9.32
2023-03-17T05:19:16.551Z,11.40
2023-03-17T05:22:04.264Z,10.23
2023-03-17T05:24:51.735Z,11.00
2023-03-17T05:27:41.158Z,9.32
2023-03-17T05:30:28.807Z,11.23
2023-03-17T05:33:16.971Z,10.48
2023-03-17T05:36:05.096Z,11.00
2023-03-17T05:38:53.422Z,14.88
2023-03-17T05:41:41.354Z,11.82
2023-03-17T05:44:30.453Z,10.38
2023-03-17T05:47:18.631Z,11.52
2023-03-17T05:50:08.392Z,10.52
2023-03-17T05:52:56.470Z,12.65
2023-03-17T05:55:44.464Z,10.43
2023-03-17T05:58:32.076Z,9.05
2023-03-17T06:01:21.386Z,9.48
2023-03-17T06:04:09.731Z,11.48
2023-03-17T06:06:58.102Z,9.93
2023-03-17T06:09:45.854Z,8.15
2023-03-17T06:12:34.052Z,8.07
2023-03-17T06:15:22.265Z,14.38
2023-03-17T06:18:12.060Z,9.75
2023-03-17T06:20:59.818Z,11.57
2023-03-17T06:23:47.567Z,11.55
2023-03-17T06:26:35.634Z,10.60
2023-03-17T06:29:23.629Z,8.38
2023-03-17T06:32:20.389Z,9.13
2023-03-17T06:35:10.905Z,11.55
2023-03-17T06:37:59.366Z,14.55
2023-03-17T06:40:47.896Z,13.45
2023-03-17T06:43:36.657Z,13.65
2023-03-17T06:46:24.959Z,11.50
2023-03-17T06:49:14.061Z,12.82
2023-03-17T06:52:03.459Z,11.38
2023-03-17T06:54:51.863Z,12.15
2023-03-17T06:57:39.656Z,11.80
2023-03-17T07:00:28.061Z,11.13
2023-03-17T07:03:16.469Z,9.23
2023-03-17T07:06:04.324Z,11.35
2023-03-17T07:08:53.908Z,7.65
2023-03-17T07:11:41.654Z,11.20
2023-03-17T07:14:29.914Z,13.90
2023-03-17T07:17:18.901Z,7.85
2023-03-17T07:20:07.733Z,8.38
2023-03-17T07:22:55.049Z,14.35
2023-03-17T07:25:45.627Z,14.05
2023-03-17T07:28:32.897Z,8.15
2023-03-17T07:31:20.220Z,9.95
2023-03-17T07:34:08.139Z,12.32
2023-03-17T07:36:56.177Z,12.65
2023-03-17T07:39:44.834Z,6.68
2023-03-17T07:42:34.648Z,10.90
2023-03-17T07:45:25.856Z,11.45
2023-03-17T07:48:13.760Z,7.60
2023-03-17T07:51:02.078Z,8.05
2023-03-17T07:53:51.190Z,7.47
2023-03-17T07:56:39.608Z,8.45
2023-03-17T07:59:29.336Z,6.85
2023-03-17T08:02:19.841Z,9.30
2023-03-17T08:05:09.346Z,8.40
2023-03-17T08:07:57.011Z,9.13
2023-03-17T08:10:45.136Z,7.63
2023-03-17T08:13:33.483Z,13.57
2023-03-17T08:16:22.568Z,11.07
2023-03-17T08:19:11.226Z,8.45
2023-03-17T08:21:59.111Z,14.23
2023-03-17T08:24:46.123Z,6.97
2023-03-17T08:27:33.980Z,8.52
2023-03-17T08:30:21.973Z,9.82
2023-03-17T08:33:10.568Z,7.20
2023-03-17T08:35:58.008Z,9.68
2023-03-17T08:38:47.024Z,9.05
2023-03-17T08:41:34.144Z,6.38
2023-03-17T08:44:23.917Z,13.68
2023-03-17T08:47:11.365Z,7.15
2023-03-17T08:50:01.089Z,8.43
2023-03-17T08:52:49.018Z,9.48
2023-03-17T08:55:37.064Z,9.70
2023-03-17T08:58:25.308Z,10.48
2023-03-17T09:01:13.029Z,7.93
2023-03-17T09:04:00.210Z,9.80
2023-03-17T09:07:02.201Z,8.50
2023-03-17T09:09:50.995Z,9.82
2023-03-17T09:12:39.598Z,7.57
2023-03-17T09:15:26.932Z,8.07
2023-03-17T09:18:14.960Z,7.65
2023-03-17T09:21:03.811Z,11.38
2023-03-17T09:23:56.968Z,8.40
2023-03-17T09:26:44.588Z,5.57
2023-03-17T09:29:36.849Z,13.20
2023-03-17T09:32:24.753Z,8.60
2023-03-17T09:35:13.233Z,5.60
2023-03-17T09:38:01.295Z,4.65
2023-03-17T09:40:56.551Z,10.02
2023-03-17T09:43:59.004Z,6.40
2023-03-17T09:46:54.703Z,6.53
2023-03-17T09:49:48.537Z,3.53
2023-03-17T09:52:41.044Z,5.63
2023-03-17T09:55:34.463Z,5.45
2023-03-17T09:58:34.156Z,3.85
2023-03-17T10:01:25.214Z,8.60
2023-03-17T10:04:18.866Z,6.63
2023-03-17T10:07:11.216Z,6.68
2023-03-17T10:10:03.903Z,9.90
2023-03-17T10:13:08.481Z,4.85
2023-03-17T10:16:05.512Z,7.32
2023-03-17T10:19:00.137Z,7.85
2023-03-17T10:21:54.375Z,4.25
2023-03-17T10:24:47.946Z,8.13
2023-03-17T10:27:39.058Z,6.30
2023-03-17T10:30:27.824Z,8.50
2023-03-17T10:33:17.519Z,3.90
2023-03-17T10:36:10.966Z,3.88
2023-03-17T10:38:58.073Z,5.15
2023-03-17T10:41:54.779Z,6.38
2023-03-17T10:44:46.148Z,6.70
2023-03-17T10:47:35.814Z,6.90
2023-03-17T10:50:28.855Z,5.32
2023-03-17T10:53:28.472Z,5.25
2023-03-17T10:56:24.645Z,4.57
2023-03-17T10:59:20.754Z,4.40
2023-03-17T11:02:19.695Z,4.88
2023-03-17T11:05:19.928Z,5.82
2023-03-17T11:08:16.567Z,6.35
2023-03-17T11:11:08.667Z,5.25
2023-03-17T11:14:04.967Z,5.82
2023-03-17T11:16:57.173Z,6.13
2023-03-17T11:19:55.089Z,3.60
2023-03-17T11:22:46.922Z,6.82
2023-03-17T11:25:39.633Z,4.97
2023-03-17T11:28:32.463Z,5.10
2023-03-17T11:31:28.812Z,5.53
2023-03-17T11:34:23.725Z,17.38
2023-03-17T11:37:23.145Z,10.43
2023-03-17T11:40:19.584Z,4.47
2023-03-17T11:43:24.697Z,8.98
2023-03-17T11:46:17.168Z,3.70
2023-03-17T11:49:15.216Z,4.50
2023-03-17T11:52:07.781Z,6.25
2023-03-17T11:55:04.791Z,3.28
2023-03-17T11:57:58.281Z,4.05
2023-03-17T12:03:46.824Z,4.68
2023-03-17T12:06:39.746Z,4.50
2023-03-17T12:09:32.379Z,6.00
2023-03-17T12:12:32.184Z,5.05
2023-03-17T12:15:29.911Z,8.18
2023-03-17T12:18:22.758Z,8.60
2023-03-17T12:21:21.917Z,3.78
2023-03-17T12:24:14.902Z,6.50
2023-03-17T12:27:09.054Z,4.68
2023-03-17T12:30:00.832Z,4.03
2023-03-17T12:32:57.686Z,5.95
2023-03-17T12:35:47.260Z,2.90
2023-03-17T12:38:39.727Z,4.60
2023-03-17T12:41:47.911Z,7.78
2023-03-17T12:44:53.777Z,6.32
2023-03-17T12:47:56.362Z,7.43
2023-03-17T12:51:08.003Z,3.63
2023-03-17T12:53:56.137Z,5.50
2023-03-17T12:56:47.952Z,4.78
2023-03-17T12:59:38.097Z,5.20
2023-03-17T13:02:37.002Z,5.68
2023-03-17T13:05:35.531Z,6.25
2023-03-17T13:08:31.481Z,4.45
2023-03-17T13:11:28.691Z,5.20
2023-03-17T13:14:25.729Z,8.68
2023-03-17T13:17:32.401Z,6.78
2023-03-17T13:20:19.797Z,7.68
2023-03-17T13:23:17.919Z,8.93
2023-03-17T13:26:07.292Z,8.25
2023-03-17T13:28:55.265Z,7.22
2023-03-17T13:31:43.473Z,6.32
2023-03-17T13:34:32.362Z,9.88
2023-03-17T13:37:26.589Z,6.70
2023-03-17T13:40:21.544Z,6.90
2023-03-17T13:43:30.119Z,10.10
2023-03-17T13:46:25.569Z,5.90
2023-03-17T13:49:24.363Z,5.82
2023-03-17T13:52:17.807Z,7.88
2023-03-17T13:58:17.642Z,7.25
2023-03-17T14:01:14.816Z,6.13
2023-03-17T14:04:10.645Z,7.40
2023-03-17T14:07:07.426Z,7.97
2023-03-17T14:10:01.817Z,7.75
2023-03-17T14:12:58.338Z,6.72
2023-03-17T14:15:52.650Z,6.70
2023-03-17T14:18:44.499Z,8.65
2023-03-17T14:21:34.074Z,7.20
2023-03-17T14:24:24.794Z,9.45
2023-03-17T14:27:16.541Z,5.68
2023-03-17T14:30:20.967Z,6.13
2023-03-17T14:33:19.606Z,5.50
2023-03-17T14:36:14.580Z,9.80
2023-03-17T14:39:02.356Z,6.80
2023-03-17T14:42:00.966Z,8.45
2023-03-17T14:44:48.244Z,8.95
2023-03-17T14:47:40.850Z,10.85
2023-03-17T14:50:32.255Z,6.97
2023-03-17T14:53:22.702Z,6.00
2023-03-17T14:56:10.905Z,9.07
2023-03-17T14:59:09.863Z,6.82
2023-03-17T15:01:59.386Z,6.15
2023-03-17T15:04:55.379Z,9.20
2023-03-17T15:07:44.207Z,6.53
2023-03-17T15:10:45.162Z,6.45
2023-03-17T15:13:37.638Z,6.38
2023-03-17T15:16:29.553Z,6.82
2023-03-17T15:19:24.117Z,7.50
2023-03-17T15:22:27.015Z,6.60
2023-03-17T15:25:29.041Z,7.20
2023-03-17T15:28:20.471Z,6.20
2023-03-17T15:31:14.964Z,7.40
2023-03-17T15:34:03.187Z,6.95
2023-03-17T15:36:50.893Z,6.18
2023-03-17T15:39:39.628Z,7.05
2023-03-17T15:42:29.413Z,7.35
2023-03-17T15:45:19.360Z,7.97
2023-03-17T15:48:07.484Z,8.30
2023-03-17T15:50:57.309Z,10.23
2023-03-17T15:53:45.567Z,7.47
2023-03-17T15:56:34.774Z,6.47
2023-03-17T15:59:22.274Z,7.25
2023-03-17T16:05:17.465Z,5.65
2023-03-17T16:08:05.168Z,5.53
2023-03-17T16:10:53.577Z,7.85
2023-03-17T16:13:41.463Z,8.05
2023-03-17T16:16:34.803Z,6.68
2023-03-17T16:22:40.355Z,7.70
2023-03-17T16:25:30.154Z,8.85
2023-03-17T16:28:19.908Z,5.13
2023-03-17T16:31:20.405Z,5.60
2023-03-17T16:34:18.173Z,4.78
2023-03-17T16:37:06.815Z,5.38
2023-03-17T16:39:56.142Z,7.88
2023-03-17T16:42:44.494Z,7.22
2023-03-17T16:45:34.144Z,5.35
2023-03-17T16:48:22.147Z,5.60
2023-03-17T16:51:09.899Z,11.27
2023-03-17T16:53:58.348Z,5.28
2023-03-17T16:56:48.027Z,5.68
2023-03-17T16:59:36.446Z,5.22
2023-03-17T17:02:24.321Z,7.30
2023-03-17T17:05:17.637Z,8.98
2023-03-17T17:08:06.347Z,6.25
2023-03-17T17:10:54.011Z,8.35
2023-03-17T17:13:45.196Z,5.82
2023-03-17T17:16:35.993Z,9.50
2023-03-17T17:19:23.745Z,9.77
2023-03-17T17:22:13.006Z,8.48
2023-03-17T17:25:00.463Z,11.57
2023-03-17T17:27:48.621Z,7.25
2023-03-17T17:30:43.457Z,9.90
2023-03-17T17:33:31.272Z,8.10
2023-03-17T17:36:19.410Z,8.85
2023-03-17T17:39:07.113Z,7.03
2023-03-17T17:41:54.741Z,9.50
2023-03-17T17:44:43.007Z,11.48
2023-03-17T17:47:32.878Z,8.20
2023-03-17T17:50:22.697Z,6.05
2023-03-17T17:53:12.500Z,12.32
2023-03-17T17:55:59.967Z,9.25
2023-03-17T17:58:47.880Z,13.05
2023-03-17T18:01:35.965Z,7.68
2023-03-17T18:04:25.866Z,8.23
2023-03-17T18:07:13.766Z,11.77
2023-03-17T18:10:01.735Z,11.70
2023-03-17T18:12:49.424Z,9.00
2023-03-17T18:15:38.029Z,10.90
2023-03-17T18:18:26.274Z,12.25
2023-03-17T18:21:16.845Z,9.07
2023-03-17T18:24:05.341Z,10.00
2023-03-17T18:26:53.228Z,9.25
2023-03-17T18:29:41.327Z,9.65
2023-03-17T18:32:30.537Z,11.40
2023-03-17T18:35:22.598Z,12.52
2023-03-17T18:38:11.714Z,14.02
2023-03-17T18:40:59.380Z,7.70
2023-03-17T18:43:46.907Z,11.40
2023-03-17T18:46:34.634Z,13.90
2023-03-17T18:49:24.401Z,9.93
2023-03-17T18:52:12.411Z,12.40
2023-03-17T18:55:01.948Z,11.35
2023-03-17T18:57:50.203Z,15.32
2023-03-17T19:00:38.163Z,12.48
2023-03-17T19:03:26.904Z,11.30
2023-03-17T19:06:15.917Z,12.02
2023-03-17T19:09:04.233Z,11.95
2023-03-17T19:11:53.771Z,11.85
2023-03-17T19:14:41.643Z,10.85
2023-03-17T19:17:29.679Z,9.50
2023-03-17T19:20:17.547Z,15.95
2023-03-17T19:23:06.099Z,18.55
2023-03-17T19:25:54.321Z,18.50
2023-03-17T19:28:43.957Z,16.27
2023-03-17T19:31:31.977Z,12.98
2023-03-17T19:34:19.798Z,17.30
2023-03-17T19:37:07.812Z,17.20
2023-03-17T19:39:55.608Z,17.17
2023-03-17T19:42:43.638Z,15.90
2023-03-17T19:45:33.052Z,16.55
2023-03-17T19:48:21.956Z,13.40
2023-03-17T19:51:10.293Z,23.75
2023-03-17T19:53:58.297Z,21.35
2023-03-17T19:56:47.638Z,18.42
2023-03-17T19:59:35.805Z,15.43
2023-03-17T20:02:25.285Z,13.40
2023-03-17T20:05:13.588Z,11.57
2023-03-17T20:08:01.842Z,16.02
2023-03-17T20:10:52.580Z,20.00
2023-03-17T20:13:41.227Z,16.55
2023-03-17T20:16:30.600Z,17.42
2023-03-17T20:19:20.600Z,13.98
2023-03-17T20:22:08.975Z,16.15
2023-03-17T20:24:57.114Z,20.42
2023-03-17T20:27:45.093Z,22.45
2023-03-17T20:30:33.617Z,14.00
2023-03-17T20:33:22.086Z,18.35
2023-03-17T20:36:13.024Z,18.67
2023-03-17T20:39:00.664Z,14.85
2023-03-17T20:41:49.649Z,18.23
2023-03-17T20:44:37.881Z,20.02
2023-03-17T20:47:26.094Z,21.80
2023-03-17T20:50:15.269Z,21.65
2023-03-17T20:53:04.445Z,40.72
2023-03-17T20:55:52.608Z,31.20
2023-03-17T20:58:40.604Z,32.53
2023-03-17T21:01:29.773Z,37.53
2023-03-17T21:04:18.148Z,26.70
2023-03-17T21:07:05.956Z,24.63
2023-03-17T21:09:56.861Z,20.85
2023-03-17T21:12:44.409Z,23.60
2023-03-17T21:15:32.385Z,19.60
2023-03-17T21:18:20.252Z,25.25
2023-03-17T21:21:08.299Z,27.63
2023-03-17T21:23:57.270Z,31.05
2023-03-17T21:26:46.748Z,20.85
2023-03-17T21:29:36.656Z,34.67
2023-03-17T21:32:24.622Z,20.20
2023-03-17T21:35:13.507Z,18.67
2023-03-17T21:38:01.734Z,18.88
2023-03-17T21:40:49.631Z,22.15
2023-03-17T21:43:38.755Z,16.73
2023-03-17T21:46:26.969Z,23.30
2023-03-17T21:49:16.716Z,18.05
2023-03-17T21:52:04.890Z,18.35
2023-03-17T21:54:52.696Z,21.55
2023-03-17T21:57:40.848Z,23.08
2023-03-17T22:00:42.602Z,14.93
2023-03-17T22:03:33.719Z,13.63
2023-03-17T22:06:23.456Z,18.63
2023-03-17T22:09:13.511Z,20.77
2023-03-17T22:12:01.039Z,15.82
2023-03-17T22:14:49.185Z,16.20
2023-03-17T22:17:39.971Z,14.85
2023-03-17T22:20:27.937Z,18.30
2023-03-17T22:23:15.617Z,16.90
2023-03-17T22:26:03.457Z,13.30
2023-03-17T22:28:52.300Z,14.23
2023-03-17T22:31:40.117Z,15.07
2023-03-17T22:34:29.363Z,14.38
2023-03-17T22:37:17.009Z,17.50
2023-03-17T22:40:06.641Z,14.45
2023-03-17T22:42:57.739Z,17.55
2023-03-17T22:45:46.545Z,16.17
2023-03-17T22:48:36.346Z,18.50
2023-03-17T22:51:26.782Z,11.73
2023-03-17T22:54:15.115Z,13.85
2023-03-17T22:57:04.524Z,20.17
2023-03-17T22:59:55.735Z,14.15
2023-03-17T23:02:44.131Z,24.70
2023-03-17T23:05:32.341Z,11.07
2023-03-17T23:08:22.780Z,15.15
2023-03-17T23:11:13.853Z,19.83
2023-03-17T23:14:01.850Z,15.40
2023-03-17T23:16:49.381Z,18.17
2023-03-17T23:19:37.223Z,12.70
2023-03-17T23:22:25.072Z,14.00
2023-03-17T23:25:14.742Z,15.85
2023-03-17T23:28:02.533Z,16.15
2023-03-17T23:30:50.699Z,15.90
2023-03-17T23:33:39.209Z,14.95
2023-03-17T23:36:26.968Z,16.27
2023-03-17T23:39:14.749Z,17.48
2023-03-17T23:42:04.363Z,15.13
2023-03-17T23:44:52.641Z,16.73
2023-03-17T23:47:40.920Z,16.38
2023-03-17T23:50:28.706Z,14.93
2023-03-17T23:53:16.796Z,15.77
2023-03-17T23:56:05.172Z,13.90
2023-03-17T23:58:55.079Z,14.60
